createdAt,value
2019-03-01T00:01:26.899Z,126.97
2019-03-01T00:04:11.752Z,135.30
2019-03-01T00:06:56.526Z,131.52
2019-03-01T00:09:50.699Z,130.37
2019-03-01T00:12:29.518Z,146.28
2019-03-01T00:15:25.038Z,141.22
2019-03-01T00:18:25.269Z,140.43
2019-03-01T00:21:20.779Z,146.05
2019-03-01T00:24:11.589Z,140.05
2019-03-01T00:26:53.377Z,139.70
2019-03-01T00:29:50.226Z,157.22
2019-03-01T00:32:47.183Z,154.90
2019-03-01T00:35:42.031Z,132.93
2019-03-01T00:38:21.012Z,131.78
2019-03-01T00:41:21.122Z,139.62
2019-03-01T00:44:18.082Z,133.22
2019-03-01T00:46:53.934Z,140.03
2019-03-01T00:49:31.319Z,145.50
2019-03-01T00:52:08.002Z,143.28
2019-03-01T00:54:43.783Z,138.28
2019-03-01T00:57:19.595Z,131.97
2019-03-01T00:59:55.450Z,134.22
2019-03-01T01:02:31.516Z,134.78
2019-03-01T01:05:07.558Z,137.18
2019-03-01T01:07:43.311Z,142.90
2019-03-01T01:10:19.174Z,145.80
2019-03-01T01:12:55.028Z,146.70
2019-03-01T01:15:30.876Z,140.97
2019-03-01T01:18:40.540Z,137.00
2019-03-01T01:21:37.983Z,159.43
2019-03-01T01:24:13.834Z,137.85
2019-03-01T01:26:49.694Z,143.50
2019-03-01T01:29:25.583Z,140.37
2019-03-01T01:32:01.448Z,135.55
2019-03-01T01:34:37.563Z,143.65
2019-03-01T01:37:13.830Z,145.22
2019-03-01T01:39:49.684Z,142.82
2019-03-01T01:42:25.531Z,128.38
2019-03-01T01:45:01.380Z,126.12
2019-03-01T01:47:37.244Z,136.65
2019-03-01T01:50:13.308Z,133.13
2019-03-01T01:52:49.153Z,129.32
2019-03-01T01:55:25.005Z,130.45
2019-03-01T01:58:00.863Z,126.25
2019-03-01T02:00:36.719Z,126.50
2019-03-01T02:03:13.486Z,119.57
2019-03-01T02:05:49.353Z,121.33
2019-03-01T02:08:25.197Z,125.85
2019-03-01T02:11:01.057Z,124.53
2019-03-01T02:13:38.077Z,123.85
2019-03-01T02:16:13.987Z,127.38
2019-03-01T02:18:57.435Z,128.53
2019-03-01T02:21:27.443Z,139.40
2019-03-01T02:24:03.302Z,145.15
2019-03-01T02:26:39.150Z,136.57
2019-03-01T02:29:15.009Z,131.52
2019-03-01T02:31:52.978Z,138.25
2019-03-01T02:34:28.866Z,132.45
2019-03-01T02:37:06.453Z,137.70
2019-03-01T02:39:42.304Z,132.93
2019-03-01T02:42:18.152Z,129.80
2019-03-01T02:44:54.025Z,119.93
2019-03-01T02:47:29.864Z,117.67
2019-03-01T02:50:08.203Z,129.38
2019-03-01T02:52:44.044Z,123.13
2019-03-01T02:55:23.112Z,122.50
2019-03-01T02:57:59.026Z,121.57
2019-03-01T03:00:35.081Z,125.10
2019-03-01T03:03:10.930Z,129.12
2019-03-01T03:06:03.586Z,123.05
2019-03-01T03:08:39.553Z,125.20
2019-03-01T03:11:15.394Z,124.85
2019-03-01T03:13:51.249Z,124.05
2019-03-01T03:16:26.988Z,127.87
2019-03-01T03:19:02.854Z,124.10
2019-03-01T03:21:38.712Z,131.43
2019-03-01T03:24:14.558Z,120.25
2019-03-01T03:26:50.425Z,126.20
2019-03-01T03:29:26.274Z,125.10
2019-03-01T03:32:02.117Z,136.92
2019-03-01T03:34:37.983Z,133.25
2019-03-01T03:37:13.836Z,130.63
2019-03-01T03:39:49.696Z,129.63
2019-03-01T03:42:25.545Z,140.88
2019-03-01T03:45:01.694Z,127.85
2019-03-01T03:47:38.682Z,139.75
2019-03-01T03:50:15.456Z,133.57
2019-03-01T03:52:51.315Z,136.18
2019-03-01T03:55:27.476Z,139.35
2019-03-01T03:58:03.422Z,129.78
2019-03-01T04:00:39.284Z,130.18
2019-03-01T04:03:15.181Z,127.97
2019-03-01T04:05:50.949Z,137.90
2019-03-01T04:08:26.846Z,133.82
2019-03-01T04:11:02.707Z,133.78
2019-03-01T04:13:38.542Z,135.30
2019-03-01T04:16:14.319Z,135.10
2019-03-01T04:18:50.159Z,135.82
2019-03-01T04:21:26.006Z,135.20
2019-03-01T04:24:01.878Z,125.38
2019-03-01T04:26:37.715Z,134.30
2019-03-01T04:29:13.577Z,137.05
2019-03-01T04:31:50.149Z,135.48
2019-03-01T04:34:25.993Z,137.28
2019-03-01T04:37:01.766Z,127.82
2019-03-01T04:39:37.598Z,136.90
2019-03-01T04:42:13.462Z,137.55
2019-03-01T04:44:49.299Z,137.12
2019-03-01T04:47:25.051Z,130.45
2019-03-01T04:50:00.908Z,128.93
2019-03-01T04:52:36.976Z,133.27
2019-03-01T04:55:18.665Z,137.25
2019-03-01T04:57:54.417Z,131.35
2019-03-01T05:00:30.214Z,134.95
2019-03-01T05:03:06.014Z,135.78
2019-03-01T05:05:41.883Z,128.35
2019-03-01T05:08:18.241Z,134.93
2019-03-01T05:10:54.097Z,134.30
2019-03-01T05:13:29.976Z,139.40
2019-03-01T05:16:06.005Z,140.20
2019-03-01T05:18:41.857Z,132.10
2019-03-01T05:21:17.713Z,135.88
2019-03-01T05:23:53.570Z,134.35
2019-03-01T05:26:29.411Z,139.55
2019-03-01T05:29:05.279Z,134.50
2019-03-01T05:31:41.131Z,138.03
2019-03-01T05:34:16.995Z,139.12
2019-03-01T05:36:53.953Z,141.55
2019-03-01T05:39:29.713Z,131.63
2019-03-01T05:42:05.565Z,135.35
2019-03-01T05:44:41.422Z,139.05
2019-03-01T05:47:17.486Z,144.47
2019-03-01T05:49:53.341Z,138.88
2019-03-01T05:52:30.376Z,128.68
2019-03-01T05:55:08.447Z,139.35
2019-03-01T05:58:21.556Z,143.28
2019-03-01T06:01:03.137Z,145.28
2019-03-01T06:03:44.978Z,153.87
2019-03-01T06:06:41.916Z,147.98
2019-03-01T06:09:32.379Z,144.87
2019-03-01T06:12:36.751Z,150.35
2019-03-01T06:15:33.326Z,146.35
2019-03-01T06:18:29.920Z,144.17
2019-03-01T06:21:08.805Z,152.75
2019-03-01T06:23:56.550Z,142.32
2019-03-01T06:26:50.564Z,139.28
2019-03-01T06:29:29.329Z,143.30
2019-03-01T06:32:24.702Z,145.60
2019-03-01T06:35:18.446Z,149.30
2019-03-01T06:38:16.152Z,149.93
2019-03-01T06:40:56.589Z,152.38
2019-03-01T06:43:38.139Z,156.52
2019-03-01T06:46:22.944Z,149.50
2019-03-01T06:49:02.987Z,144.43
2019-03-01T06:51:38.776Z,153.18
2019-03-01T06:54:14.520Z,139.70
2019-03-01T06:56:50.277Z,144.55
2019-03-01T06:59:26.065Z,133.85
2019-03-01T07:02:02.935Z,161.68
2019-03-01T07:04:38.729Z,152.75
2019-03-01T07:07:14.662Z,151.82
2019-03-01T07:09:50.430Z,146.60
2019-03-01T07:12:26.163Z,137.28
2019-03-01T07:15:01.971Z,138.10
2019-03-01T07:17:39.545Z,145.02
2019-03-01T07:20:15.344Z,150.03
2019-03-01T07:22:51.149Z,149.18
2019-03-01T07:25:26.921Z,156.40
2019-03-01T07:28:02.772Z,157.90
2019-03-01T07:30:38.574Z,153.23
2019-03-01T07:33:14.385Z,165.60
2019-03-01T07:35:50.258Z,164.43
2019-03-01T07:38:25.985Z,159.43
2019-03-01T07:41:01.783Z,159.15
2019-03-01T07:43:37.582Z,159.07
2019-03-01T07:46:13.417Z,166.55
2019-03-01T07:48:49.177Z,164.60
2019-03-01T07:51:26.944Z,166.80
2019-03-01T07:54:02.465Z,165.25
2019-03-01T07:56:39.886Z,159.10
2019-03-01T07:59:15.714Z,151.72
2019-03-01T08:01:51.483Z,150.42
2019-03-01T08:04:28.805Z,164.82
2019-03-01T08:07:05.343Z,154.07
2019-03-01T08:09:44.505Z,155.82
2019-03-01T08:12:18.786Z,136.43
2019-03-01T08:14:54.631Z,153.20
2019-03-01T08:17:31.604Z,154.30
2019-03-01T08:20:13.212Z,148.07
2019-03-01T08:22:49.765Z,140.97
2019-03-01T08:25:25.619Z,142.80
2019-03-01T08:28:01.428Z,159.45
2019-03-01T08:30:37.311Z,146.68
2019-03-01T08:33:13.166Z,144.60
2019-03-01T08:35:48.957Z,149.68
2019-03-01T08:38:25.432Z,150.03
2019-03-01T08:41:02.153Z,148.82
2019-03-01T08:43:37.892Z,146.75
2019-03-01T08:46:13.660Z,145.60
2019-03-01T08:48:49.454Z,144.22
2019-03-01T08:51:26.447Z,148.95
2019-03-01T08:54:02.680Z,140.12
2019-03-01T08:56:38.485Z,137.90
2019-03-01T08:59:17.591Z,151.02
2019-03-01T09:01:51.700Z,175.72
2019-03-01T09:04:27.470Z,166.18
2019-03-01T09:07:03.292Z,144.20
2019-03-01T09:09:39.246Z,142.57
2019-03-01T09:12:15.010Z,156.80
2019-03-01T09:14:50.782Z,133.32
2019-03-01T09:17:26.551Z,134.10
2019-03-01T09:20:02.474Z,131.43
2019-03-01T09:22:38.302Z,132.93
2019-03-01T09:25:15.703Z,143.82
2019-03-01T09:27:51.560Z,134.15
2019-03-01T09:30:27.411Z,138.45
2019-03-01T09:33:03.359Z,135.30
2019-03-01T09:35:43.993Z,146.47
2019-03-01T09:38:19.819Z,133.35
2019-03-01T09:40:57.416Z,133.35
2019-03-01T09:43:33.019Z,139.70
2019-03-01T09:46:08.784Z,135.35
2019-03-01T09:48:45.675Z,132.22
2019-03-01T09:51:22.399Z,122.70
2019-03-01T09:53:58.172Z,145.87
2019-03-01T09:56:33.940Z,162.50
2019-03-01T09:59:09.738Z,152.78
2019-03-01T10:01:46.478Z,165.43
2019-03-01T10:04:22.277Z,146.47
2019-03-01T10:06:58.044Z,147.02
2019-03-01T10:09:34.217Z,146.93
2019-03-01T10:12:09.977Z,167.72
2019-03-01T10:14:45.837Z,149.75
2019-03-01T10:17:57.126Z,155.43
2019-03-01T10:20:36.358Z,150.15
2019-03-01T10:23:12.205Z,147.43
2019-03-01T10:25:48.065Z,155.12
2019-03-01T10:28:24.210Z,153.27
2019-03-01T10:31:00.236Z,157.18
2019-03-01T10:33:36.139Z,155.18
2019-03-01T10:36:12.002Z,163.22
2019-03-01T10:38:47.952Z,174.27
2019-03-01T10:41:23.803Z,176.87
2019-03-01T10:43:59.642Z,171.05
2019-03-01T10:46:35.511Z,177.93
2019-03-01T10:49:11.368Z,188.68
2019-03-01T10:51:47.219Z,186.73
2019-03-01T10:54:23.073Z,192.05
2019-03-01T10:56:58.924Z,191.45
2019-03-01T10:59:34.778Z,175.50
2019-03-01T11:02:11.188Z,182.02
2019-03-01T11:04:46.987Z,190.25
2019-03-01T11:07:22.854Z,182.43
2019-03-01T11:09:59.026Z,181.82
2019-03-01T11:12:35.280Z,166.57
2019-03-01T11:15:12.566Z,163.30
2019-03-01T11:17:48.421Z,170.25
2019-03-01T11:20:24.375Z,161.32
2019-03-01T11:23:00.284Z,161.82
2019-03-01T11:25:36.181Z,156.37
2019-03-01T11:28:12.041Z,167.55
2019-03-01T11:30:47.898Z,166.80
2019-03-01T11:33:24.265Z,164.03
2019-03-01T11:36:00.109Z,171.75
2019-03-01T11:38:35.927Z,164.22
2019-03-01T11:41:11.821Z,175.62
2019-03-01T11:43:48.701Z,170.57
2019-03-01T11:46:24.662Z,168.35
2019-03-01T11:49:00.497Z,177.60
2019-03-01T11:51:36.363Z,176.70
2019-03-01T11:54:13.651Z,190.30
2019-03-01T11:56:50.011Z,181.18
2019-03-01T11:59:25.860Z,188.80
2019-03-01T12:02:03.058Z,186.77
2019-03-01T12:04:39.238Z,197.35
2019-03-01T12:07:15.059Z,190.07
2019-03-01T12:09:51.445Z,199.60
2019-03-01T12:12:27.296Z,321.60
2019-03-01T12:15:03.145Z,325.27
2019-03-01T12:17:39.518Z,265.27
2019-03-01T12:20:21.020Z,224.90
2019-03-01T12:22:56.846Z,203.35
2019-03-01T12:25:32.706Z,200.80
2019-03-01T12:28:08.560Z,211.97
2019-03-01T12:30:44.407Z,208.02
2019-03-01T12:33:20.304Z,244.37
2019-03-01T12:35:56.416Z,240.37
2019-03-01T12:38:32.376Z,342.75
2019-03-01T12:41:08.244Z,336.62
2019-03-01T12:43:44.104Z,240.60
2019-03-01T12:46:19.883Z,204.95
2019-03-01T12:48:55.653Z,194.37
2019-03-01T12:51:31.503Z,209.37
2019-03-01T12:54:07.346Z,187.30
2019-03-01T12:56:43.303Z,181.60
2019-03-01T12:59:19.175Z,202.85
2019-03-01T13:01:54.969Z,183.50
2019-03-01T13:04:30.731Z,184.40
2019-03-01T13:07:06.496Z,179.27
2019-03-01T13:09:42.290Z,171.53
2019-03-01T13:12:19.050Z,173.17
2019-03-01T13:14:54.863Z,178.82
2019-03-01T13:17:33.730Z,180.52
2019-03-01T13:20:13.207Z,181.02
2019-03-01T13:22:49.127Z,173.03
2019-03-01T13:25:25.923Z,187.00
2019-03-01T13:28:02.470Z,189.60
2019-03-01T13:30:38.251Z,183.78
2019-03-01T13:33:19.718Z,182.55
2019-03-01T13:36:03.653Z,170.38
2019-03-01T13:38:37.953Z,160.25
2019-03-01T13:41:13.694Z,166.37
2019-03-01T13:43:49.530Z,157.15
2019-03-01T13:46:26.362Z,150.25
2019-03-01T13:49:02.876Z,152.65
2019-03-01T13:51:38.638Z,144.87
2019-03-01T13:54:14.404Z,170.30
2019-03-01T13:56:50.852Z,147.02
2019-03-01T13:59:27.175Z,141.18
2019-03-01T14:02:04.365Z,149.60
2019-03-01T14:04:41.360Z,152.20
2019-03-01T14:07:17.296Z,203.60
2019-03-01T14:09:53.155Z,199.00
2019-03-01T14:12:28.870Z,139.95
2019-03-01T14:15:07.444Z,162.03
2019-03-01T14:17:43.178Z,179.93
2019-03-01T14:20:21.249Z,156.47
2019-03-01T14:22:57.054Z,201.52
2019-03-01T14:25:32.847Z,150.03
2019-03-01T14:28:08.633Z,181.40
2019-03-01T14:30:44.447Z,143.35
2019-03-01T14:33:20.167Z,156.95
2019-03-01T14:35:55.980Z,153.05
2019-03-01T14:38:31.707Z,153.50
2019-03-01T14:41:07.978Z,158.42
2019-03-01T14:43:43.715Z,153.93
2019-03-01T14:46:20.839Z,151.12
2019-03-01T14:48:57.127Z,136.55
2019-03-01T14:51:32.992Z,126.10
2019-03-01T14:54:09.886Z,135.00
2019-03-01T14:56:47.254Z,135.70
2019-03-01T14:59:26.192Z,135.88
2019-03-01T15:02:20.179Z,129.42
2019-03-01T15:04:56.019Z,134.67
2019-03-01T15:07:31.870Z,131.18
2019-03-01T15:10:11.611Z,136.82
2019-03-01T15:12:47.459Z,128.07
2019-03-01T15:15:26.398Z,136.12
2019-03-01T15:18:00.921Z,133.97
2019-03-01T15:20:37.278Z,141.03
2019-03-01T15:23:15.053Z,137.88
2019-03-01T15:25:50.617Z,135.43
2019-03-01T15:28:26.468Z,142.93
2019-03-01T15:31:02.341Z,138.18
2019-03-01T15:33:38.189Z,151.45
2019-03-01T15:36:18.076Z,129.10
2019-03-01T15:38:51.529Z,133.18
2019-03-01T15:41:28.207Z,142.32
2019-03-01T15:44:04.157Z,132.78
2019-03-01T15:46:40.010Z,147.93
2019-03-01T15:49:16.252Z,139.15
2019-03-01T15:51:52.141Z,145.55
2019-03-01T15:54:28.191Z,131.43
2019-03-01T15:57:04.269Z,134.55
2019-03-01T15:59:44.405Z,127.00
2019-03-01T16:02:19.100Z,135.18
2019-03-01T16:04:54.889Z,135.10
2019-03-01T16:07:32.345Z,134.22
2019-03-01T16:10:18.718Z,137.20
2019-03-01T16:12:54.514Z,144.80
2019-03-01T16:15:30.335Z,173.30
2019-03-01T16:18:06.141Z,148.22
2019-03-01T16:20:41.928Z,144.68
2019-03-01T16:23:17.684Z,144.82
2019-03-01T16:25:56.334Z,151.57
2019-03-01T16:28:32.279Z,141.97
2019-03-01T16:31:08.394Z,144.68
2019-03-01T16:33:44.156Z,152.93
2019-03-01T16:36:23.374Z,149.72
2019-03-01T16:38:59.130Z,150.42
2019-03-01T16:41:35.347Z,140.05
2019-03-01T16:44:11.263Z,155.37
2019-03-01T16:46:47.029Z,163.03
2019-03-01T16:49:23.614Z,176.10
2019-03-01T16:52:00.294Z,170.65
2019-03-01T16:54:36.628Z,192.92
2019-03-01T16:57:15.043Z,178.57
2019-03-01T16:59:49.897Z,179.05
2019-03-01T17:02:25.672Z,185.95
2019-03-01T17:05:03.887Z,184.87
2019-03-01T17:07:39.350Z,205.55
2019-03-01T17:10:18.845Z,175.13
2019-03-01T17:12:54.557Z,180.57
2019-03-01T17:15:30.323Z,177.27
2019-03-01T17:18:11.132Z,174.57
2019-03-01T17:20:44.574Z,177.57
2019-03-01T17:23:20.362Z,178.05
2019-03-01T17:25:56.163Z,172.85
2019-03-01T17:28:32.046Z,170.02
2019-03-01T17:31:07.838Z,170.90
2019-03-01T17:33:45.102Z,163.87
2019-03-01T17:36:21.881Z,173.47
2019-03-01T17:38:57.658Z,171.75
2019-03-01T17:41:33.442Z,171.22
2019-03-01T17:44:09.632Z,166.45
2019-03-01T17:46:45.411Z,163.37
2019-03-01T17:49:21.250Z,159.37
2019-03-01T17:51:57.712Z,163.37
2019-03-01T17:54:33.596Z,172.35
2019-03-01T17:57:09.603Z,195.45
2019-03-01T17:59:48.244Z,155.95
2019-03-01T18:02:22.867Z,173.13
2019-03-01T18:04:58.620Z,165.12
2019-03-01T18:07:34.419Z,159.93
2019-03-01T18:10:12.224Z,158.77
2019-03-01T18:12:48.028Z,170.10
2019-03-01T18:15:23.732Z,166.73
2019-03-01T18:17:59.495Z,165.62
2019-03-01T18:20:37.765Z,175.55
2019-03-01T18:23:12.820Z,169.02
2019-03-01T18:25:48.849Z,166.55
2019-03-01T18:28:28.317Z,186.52
2019-03-01T18:31:02.974Z,163.22
2019-03-01T18:33:38.801Z,168.02
2019-03-01T18:36:14.518Z,164.10
2019-03-01T18:38:50.386Z,159.48
2019-03-01T18:41:27.392Z,166.20
2019-03-01T18:44:03.546Z,168.87
2019-03-01T18:46:39.547Z,161.95
2019-03-01T18:49:16.692Z,174.68
2019-03-01T18:51:53.213Z,171.00
2019-03-01T18:54:29.037Z,173.05
2019-03-01T18:57:04.885Z,163.87
2019-03-01T18:59:40.787Z,166.25
2019-03-01T19:02:16.680Z,163.20
2019-03-01T19:04:54.066Z,160.65
2019-03-01T19:07:29.931Z,157.93
2019-03-01T19:10:08.962Z,155.12
2019-03-01T19:12:48.626Z,155.27
2019-03-01T19:15:22.720Z,159.12
2019-03-01T19:17:58.568Z,164.03
2019-03-01T19:20:49.064Z,166.05
2019-03-01T19:23:25.794Z,165.22
2019-03-01T19:26:02.004Z,161.15
2019-03-01T19:28:37.711Z,171.05
2019-03-01T19:31:13.499Z,179.10
2019-03-01T19:33:49.362Z,165.95
2019-03-01T19:36:25.315Z,175.85
2019-03-01T19:39:01.555Z,253.77
2019-03-01T19:41:39.072Z,204.78
2019-03-01T19:44:15.030Z,208.23
2019-03-01T19:46:51.390Z,212.05
2019-03-01T19:49:28.314Z,195.00
2019-03-01T19:52:04.114Z,193.45
2019-03-01T19:54:40.172Z,179.32
2019-03-01T19:57:16.244Z,181.18
2019-03-01T19:59:51.981Z,191.28
2019-03-01T20:02:30.875Z,198.78
2019-03-01T20:05:08.925Z,193.25
2019-03-01T20:07:44.768Z,186.88
2019-03-01T20:10:20.635Z,198.27
2019-03-01T20:12:56.473Z,230.35
2019-03-01T20:15:32.656Z,208.25
2019-03-01T20:18:09.892Z,187.40
2019-03-01T20:20:46.092Z,174.07
2019-03-01T20:23:21.954Z,185.60
2019-03-01T20:25:57.800Z,182.43
2019-03-01T20:28:33.652Z,177.50
2019-03-01T20:31:09.501Z,179.05
2019-03-01T20:33:45.362Z,181.45
2019-03-01T20:36:21.212Z,159.25
2019-03-01T20:38:59.443Z,167.95
2019-03-01T20:41:35.946Z,166.53
2019-03-01T20:44:14.653Z,156.67
2019-03-01T20:46:50.468Z,165.62
2019-03-01T20:49:26.314Z,162.12
2019-03-01T20:52:03.313Z,167.13
2019-03-01T20:54:39.252Z,165.30
2019-03-01T20:57:15.008Z,171.87
2019-03-01T20:59:51.593Z,157.60
2019-03-01T21:02:27.546Z,161.40
2019-03-01T21:05:03.394Z,162.97
2019-03-01T21:07:39.653Z,164.65
2019-03-01T21:10:20.692Z,175.40
2019-03-01T21:12:56.589Z,171.60
2019-03-01T21:15:34.619Z,166.85
2019-03-01T21:18:10.027Z,169.47
2019-03-01T21:20:45.903Z,166.28
2019-03-01T21:23:21.845Z,165.00
2019-03-01T21:25:57.587Z,150.70
2019-03-01T21:28:33.762Z,155.80
2019-03-01T21:31:11.044Z,151.07
2019-03-01T21:33:46.907Z,163.70
2019-03-01T21:36:25.946Z,150.90
2019-03-01T21:39:01.369Z,142.72
2019-03-01T21:41:41.494Z,147.20
2019-03-01T21:44:16.261Z,146.22
2019-03-01T21:46:51.999Z,141.90
2019-03-01T21:49:27.806Z,144.90
2019-03-01T21:52:03.603Z,137.85
2019-03-01T21:54:39.472Z,131.47
2019-03-01T21:57:15.210Z,132.73
2019-03-01T21:59:52.512Z,135.48
2019-03-01T22:02:28.453Z,136.65
2019-03-01T22:05:13.628Z,141.77
2019-03-01T22:07:51.642Z,148.93
2019-03-01T22:10:27.484Z,149.62
2019-03-01T22:13:03.353Z,145.32
2019-03-01T22:15:39.336Z,154.45
2019-03-01T22:18:15.160Z,163.82
2019-03-01T22:20:50.921Z,151.00
2019-03-01T22:23:26.650Z,161.00
2019-03-01T22:26:02.504Z,160.82
2019-03-01T22:28:38.216Z,159.05
2019-03-01T22:31:14.020Z,157.30
2019-03-01T22:33:52.562Z,160.93
2019-03-01T22:36:27.251Z,156.30
2019-03-01T22:39:03.115Z,165.25
2019-03-01T22:41:40.614Z,158.10
2019-03-01T22:44:16.460Z,166.55
2019-03-01T22:46:52.310Z,160.10
2019-03-01T22:49:31.744Z,168.97
2019-03-01T22:52:07.309Z,155.18
2019-03-01T22:54:43.144Z,157.85
2019-03-01T22:57:22.463Z,148.43
2019-03-01T22:59:56.700Z,157.22
2019-03-01T23:02:33.239Z,169.50
2019-03-01T23:05:09.848Z,149.65
2019-03-01T23:07:45.706Z,150.62
2019-03-01T23:10:22.330Z,156.37
2019-03-01T23:12:58.332Z,155.03
2019-03-01T23:15:34.190Z,148.02
2019-03-01T23:18:10.038Z,162.70
2019-03-01T23:20:45.884Z,154.07
2019-03-01T23:23:24.008Z,154.27
2019-03-01T23:25:59.341Z,156.50
2019-03-01T23:28:35.505Z,148.45
2019-03-01T23:31:11.681Z,158.55
2019-03-01T23:33:47.516Z,163.40
2019-03-01T23:36:24.864Z,175.25
2019-03-01T23:39:01.073Z,193.35
2019-03-01T23:41:38.448Z,176.00
2019-03-01T23:44:15.434Z,170.28
2019-03-01T23:46:51.300Z,171.53
2019-03-01T23:49:27.151Z,178.75
2019-03-01T23:52:03.001Z,177.05
2019-03-01T23:54:40.628Z,189.87
2019-03-01T23:57:16.354Z,194.10
2019-03-01T23:59:52.210Z,185.15
